Time;durP1;ratioP1;P1;durP2;ratioP2;P2;SDS_P1;SDS_P2;PMS_P1;PMS_P2;Temp;Humidity;BMP_temperature;BMP_pressure;BME280_temperature;BME280_humidity;BME280_pressure;Samples;Min_cycle;Max_cycle;Signal;HPM_P1;HPM_P2
2023/06/25 00:00:11;;;;;;;11.43;7.73;;;20.10;30.60;;;;;;5060538;28;20877;-77
2023/06/25 00:02:37;;;;;;;9.70;7.27;;;20.00;30.60;;;;;;5062660;28;20405;-77
2023/06/25 00:05:03;;;;;;;10.90;7.50;;;20.00;31.60;;;;;;5061931;28;20381;-76
2023/06/25 00:07:28;;;;;;;10.85;7.60;;;19.90;31.50;;;;;;5062954;28;20404;-77
2023/06/25 00:09:55;;;;;;;10.97;7.27;;;19.80;31.80;;;;;;5061012;28;20385;-77
2023/06/25 00:12:21;;;;;;;11.30;7.40;;;19.80;31.90;;;;;;5039756;28;20769;-77
2023/06/25 00:14:47;;;;;;;10.00;7.50;;;19.80;31.80;;;;;;5057087;28;20385;-78
2023/06/25 00:17:17;;;;;;;11.90;7.30;;;19.70;32.40;;;;;;5057287;28;20476;-78
2023/06/25 00:19:43;;;;;;;13.50;8.13;;;19.60;32.90;;;;;;5057404;28;20459;-78
2023/06/25 00:22:11;;;;;;;13.47;7.57;;;19.60;33.10;;;;;;5061108;28;20405;-79
2023/06/25 00:24:37;;;;;;;11.82;7.55;;;19.70;32.80;;;;;;5058877;28;20473;-78
2023/06/25 00:27:04;;;;;;;11.88;6.80;;;19.80;32.60;;;;;;5039606;28;20875;-77
2023/06/25 00:29:29;;;;;;;14.68;7.45;;;19.70;32.70;;;;;;5056244;28;20449;-77
2023/06/25 00:31:55;;;;;;;11.87;7.37;;;19.70;33.40;;;;;;5055568;28;20435;-77
2023/06/25 00:34:20;;;;;;;11.10;7.17;;;19.60;33.10;;;;;;5056492;28;20470;-77
2023/06/25 00:36:46;;;;;;;14.00;7.60;;;19.40;33.70;;;;;;5054507;28;20381;-76
2023/06/25 00:39:11;;;;;;;10.25;7.30;;;19.40;34.10;;;;;;5058819;28;20441;-78
2023/06/25 00:41:40;;;;;;;11.37;7.30;;;19.50;33.30;;;;;;5056674;28;20747;-77
2023/06/25 00:44:06;;;;;;;12.77;8.10;;;19.40;33.60;;;;;;5059736;28;20412;-78
2023/06/25 00:46:32;;;;;;;14.80;8.17;;;19.30;34.10;;;;;;5038315;28;20476;-77
2023/06/25 00:49:01;;;;;;;15.40;8.30;;;19.10;34.50;;;;;;5055815;28;20852;-76
2023/06/25 00:51:27;;;;;;;12.00;7.45;;;19.20;34.40;;;;;;5055462;28;20373;-77
2023/06/25 00:53:53;;;;;;;10.30;7.15;;;19.00;34.40;;;;;;5056308;28;20401;-78
2023/06/25 00:56:27;;;;;;;9.50;6.70;;;18.90;34.80;;;;;;5056780;28;20377;-77
2023/06/25 00:59:00;;;;;;;10.60;7.43;;;19.00;34.90;;;;;;5056445;28;20889;-77
2023/06/25 01:01:31;;;;;;;13.15;7.35;;;19.10;33.90;;;;;;5054552;28;20381;-76
2023/06/25 01:04:05;;;;;;;13.10;7.20;;;19.00;33.90;;;;;;5056205;28;20765;-78
2023/06/25 01:06:40;;;;;;;12.07;7.30;;;18.90;34.50;;;;;;5038097;28;20893;-78
2023/06/25 01:09:08;;;;;;;12.98;7.45;;;18.80;34.70;;;;;;5056199;28;20398;-78
2023/06/25 01:11:33;;;;;;;11.45;7.30;;;18.90;34.70;;;;;;5055893;28;20874;-78
2023/06/25 01:13:59;;;;;;;10.70;7.20;;;19.00;33.90;;;;;;5055913;28;20409;-78
2023/06/25 01:16:24;;;;;;;12.07;7.37;;;18.90;34.70;;;;;;5055967;28;20386;-78
2023/06/25 01:18:50;;;;;;;13.55;7.10;;;18.80;34.30;;;;;;5056009;28;20393;-78
2023/06/25 01:21:18;;;;;;;11.88;7.60;;;18.80;34.50;;;;;;5055510;28;20392;-78
2023/06/25 01:23:44;;;;;;;10.68;7.75;;;18.70;34.80;;;;;;5037479;28;20409;-79
2023/06/25 01:26:09;;;;;;;11.60;7.80;;;18.70;35.50;;;;;;5055447;28;20833;-78
2023/06/25 01:28:35;;;;;;;11.60;7.80;;;18.60;35.80;;;;;;5055469;28;20403;-77
2023/06/25 01:31:03;;;;;;;12.90;8.10;;;18.50;36.60;;;;;;5055751;28;20432;-79
2023/06/25 01:33:29;;;;;;;10.13;7.28;;;18.50;36.80;;;;;;5057745;28;20389;-76
2023/06/25 01:35:55;;;;;;;10.40;7.47;;;18.50;36.80;;;;;;5068692;28;20393;-76
2023/06/25 01:38:20;;;;;;;10.32;7.60;;;18.40;36.90;;;;;;5056029;28;20424;-79
2023/06/25 01:40:46;;;;;;;11.05;7.90;;;18.40;37.60;;;;;;5038405;28;20385;-78
2023/06/25 01:43:12;;;;;;;10.90;7.47;;;18.40;38.20;;;;;;5053118;28;20432;-77
2023/06/25 01:45:37;;;;;;;10.83;7.80;;;18.40;38.20;;;;;;5055159;28;20389;-77
2023/06/25 01:48:03;;;;;;;12.10;7.90;;;18.30;38.10;;;;;;5054813;28;20388;-76
2023/06/25 01:50:29;;;;;;;12.15;7.72;;;18.30;38.50;;;;;;5036376;28;20398;-77
2023/06/25 01:52:54;;;;;;;12.40;8.20;;;18.30;38.60;;;;;;5054804;28;20381;-78
2023/06/25 01:55:20;;;;;;;15.17;8.60;;;18.30;38.40;;;;;;5055157;28;20396;-78
2023/06/25 01:57:45;;;;;;;13.85;8.43;;;18.30;38.50;;;;;;5054958;28;20917;-78
2023/06/25 02:00:12;;;;;;;11.20;8.50;;;18.30;38.80;;;;;;5055080;28;20917;-79
2023/06/25 02:02:37;;;;;;;13.55;8.75;;;18.20;39.20;;;;;;5054916;28;20436;-77
2023/06/25 02:05:03;;;;;;;12.30;8.80;;;18.20;39.30;;;;;;5056067;28;20832;-78
2023/06/25 02:07:29;;;;;;;12.25;8.93;;;18.30;39.70;;;;;;5066626;28;20373;-76
2023/06/25 02:09:54;;;;;;;16.17;9.20;;;18.20;39.80;;;;;;5074959;28;20377;-76
2023/06/25 02:12:20;;;;;;;12.57;8.97;;;18.10;40.10;;;;;;5062654;28;20385;-77
2023/06/25 02:14:46;;;;;;;19.42;12.57;;;18.10;40.30;;;;;;5055927;28;20389;-77
2023/06/25 02:17:11;;;;;;;17.85;9.05;;;18.30;39.80;;;;;;5055153;28;20432;-78
2023/06/25 02:19:37;;;;;;;11.57;9.03;;;18.20;39.80;;;;;;5036841;28;20480;-78
2023/06/25 02:22:02;;;;;;;18.35;9.43;;;18.20;40.10;;;;;;5054561;28;20385;-77
2023/06/25 02:24:28;;;;;;;15.35;9.32;;;18.20;40.00;;;;;;5054486;28;20918;-77
2023/06/25 02:26:54;;;;;;;15.17;8.90;;;18.10;40.20;;;;;;5054428;28;20390;-78
2023/06/25 02:29:19;;;;;;;17.98;9.20;;;18.10;40.40;;;;;;5045717;28;20723;-77
2023/06/25 02:31:45;;;;;;;13.68;9.30;;;18.20;39.80;;;;;;5066111;28;20407;-76
2023/06/25 02:34:11;;;;;;;14.07;8.80;;;18.20;39.80;;;;;;5068324;28;20460;-76
2023/06/25 02:36:36;;;;;;;13.73;9.65;;;18.10;39.80;;;;;;5049057;28;20395;-77
2023/06/25 02:39:02;;;;;;;14.97;9.20;;;18.20;39.60;;;;;;5054457;28;20389;-79
2023/06/25 02:41:28;;;;;;;12.27;9.20;;;18.20;39.40;;;;;;5054191;28;20385;-77
2023/06/25 02:43:53;;;;;;;13.07;9.15;;;18.20;39.20;;;;;;5058816;28;20505;-77
2023/06/25 02:46:19;;;;;;;14.17;9.77;;;18.30;39.00;;;;;;5052088;28;20468;-77
2023/06/25 02:48:45;;;;;;;13.93;8.57;;;18.30;39.00;;;;;;5059558;28;20382;-76
2023/06/25 02:51:10;;;;;;;12.45;8.77;;;18.30;39.30;;;;;;5057012;28;20394;-77
2023/06/25 02:53:36;;;;;;;16.50;9.60;;;18.20;39.40;;;;;;5056224;28;20411;-77
2023/06/25 02:56:02;;;;;;;14.30;9.40;;;18.20;39.30;;;;;;5058566;28;20392;-78
2023/06/25 02:58:27;;;;;;;13.67;8.90;;;18.20;39.80;;;;;;5057132;28;20397;-78
2023/06/25 03:00:53;;;;;;;11.40;8.67;;;18.20;39.90;;;;;;5056826;28;20403;-78
2023/06/25 03:03:19;;;;;;;14.05;9.43;;;18.20;39.80;;;;;;5057480;28;20488;-76
2023/06/25 03:05:44;;;;;;;10.82;8.77;;;18.20;40.10;;;;;;5057756;28;20456;-78
2023/06/25 03:08:10;;;;;;;9.77;8.23;;;18.20;40.00;;;;;;5058020;28;20439;-78
2023/06/25 03:10:37;;;;;;;14.70;9.60;;;18.20;40.30;;;;;;5058032;28;20385;-77
2023/06/25 03:13:06;;;;;;;14.73;9.50;;;18.20;40.40;;;;;;5058322;28;20455;-77
2023/06/25 03:15:32;;;;;;;11.90;9.03;;;18.20;40.20;;;;;;5058140;28;20432;-78
2023/06/25 03:17:58;;;;;;;12.27;8.40;;;18.20;40.10;;;;;;5058154;28;20905;-78
2023/06/25 03:20:23;;;;;;;10.82;9.15;;;18.30;40.30;;;;;;5059497;28;20400;-77
2023/06/25 03:22:49;;;;;;;12.07;9.35;;;18.30;40.20;;;;;;5040621;28;20397;-78
2023/06/25 03:25:15;;;;;;;14.37;9.50;;;18.30;40.70;;;;;;5059814;28;20393;-78
2023/06/25 03:27:41;;;;;;;11.80;9.00;;;18.40;39.90;;;;;;5059530;28;20452;-78
2023/06/25 03:30:07;;;;;;;20.80;9.47;;;18.40;39.90;;;;;;5067068;28;20381;-78
2023/06/25 03:32:33;;;;;;;11.40;8.60;;;18.40;39.80;;;;;;5064694;28;20779;-78
2023/06/25 03:34:59;;;;;;;14.98;9.40;;;18.60;39.10;;;;;;5061121;28;20806;-79
2023/06/25 03:37:25;;;;;;;12.07;8.88;;;18.60;38.90;;;;;;5061553;28;20390;-79
2023/06/25 03:39:50;;;;;;;12.20;9.40;;;18.70;38.90;;;;;;5057882;28;20480;-79
2023/06/25 03:42:16;;;;;;;14.50;9.57;;;18.70;38.90;;;;;;5058380;28;20428;-78
2023/06/25 03:44:47;;;;;;;14.43;9.27;;;18.70;38.80;;;;;;5059317;28;20413;-78
2023/06/25 03:47:13;;;;;;;10.43;8.63;;;18.80;39.00;;;;;;5041116;28;20385;-78
2023/06/25 03:49:38;;;;;;;13.17;9.50;;;18.80;38.80;;;;;;5042823;28;20886;-77
2023/06/25 03:52:04;;;;;;;13.93;10.10;;;18.80;39.10;;;;;;5074845;28;20412;-78
2023/06/25 03:54:30;;;;;;;12.98;9.10;;;18.80;38.80;;;;;;5075377;28;20575;-77
2023/06/25 03:56:55;;;;;;;12.07;9.20;;;18.90;38.70;;;;;;5072797;28;20397;-78
2023/06/25 03:59:21;;;;;;;12.83;9.47;;;18.90;38.70;;;;;;5057189;28;20451;-78
2023/06/25 04:01:46;;;;;;;14.88;9.95;;;18.90;38.70;;;;;;5057096;28;20476;-77
2023/06/25 04:04:12;;;;;;;16.60;10.50;;;18.90;38.80;;;;;;5056126;28;20401;-78
2023/06/25 04:06:37;;;;;;;13.33;9.60;;;19.00;38.60;;;;;;5055703;28;20391;-78
2023/06/25 04:09:03;;;;;;;14.75;9.60;;;19.00;38.60;;;;;;5056463;28;20373;-77
2023/06/25 04:11:29;;;;;;;13.10;9.90;;;19.10;38.20;;;;;;5038313;28;20738;-77
2023/06/25 04:13:54;;;;;;;13.70;9.77;;;19.10;38.00;;;;;;5056614;28;20457;-76
2023/06/25 04:16:20;;;;;;;13.73;9.63;;;19.20;38.30;;;;;;5057197;28;20385;-78
2023/06/25 04:18:46;;;;;;;14.50;9.85;;;19.20;38.20;;;;;;5038708;28;20484;-78
2023/06/25 04:21:11;;;;;;;13.95;9.80;;;19.20;38.30;;;;;;5056812;28;20394;-78
2023/06/25 04:23:37;;;;;;;17.87;10.60;;;19.10;38.60;;;;;;5037906;28;20735;-77
2023/06/25 04:26:02;;;;;;;13.40;9.97;;;19.10;38.70;;;;;;5054405;28;20549;-79
2023/06/25 04:28:28;;;;;;;14.10;10.38;;;19.20;38.50;;;;;;5059790;28;20392;-76
2023/06/25 04:30:53;;;;;;;11.70;9.80;;;19.20;38.90;;;;;;5072414;28;20894;-77
2023/06/25 04:33:20;;;;;;;14.82;10.38;;;19.20;38.70;;;;;;5068778;28;20397;-76
2023/06/25 04:35:46;;;;;;;16.27;10.00;;;19.20;38.70;;;;;;5071877;28;20389;-76
2023/06/25 04:38:12;;;;;;;13.75;9.75;;;19.20;38.70;;;;;;5071919;28;20415;-77
2023/06/25 04:40:37;;;;;;;13.87;10.10;;;19.30;38.90;;;;;;5065677;28;20393;-76
2023/06/25 04:43:03;;;;;;;12.20;10.13;;;19.30;38.80;;;;;;5056373;28;20434;-77
2023/06/25 04:45:28;;;;;;;16.73;10.15;;;19.40;38.50;;;;;;5057408;28;20385;-77
2023/06/25 04:47:54;;;;;;;13.67;9.83;;;19.50;38.20;;;;;;5039258;28;20385;-77
2023/06/25 04:50:20;;;;;;;15.90;9.70;;;19.60;37.70;;;;;;5056433;28;20399;-76
2023/06/25 04:52:46;;;;;;;13.63;10.00;;;19.70;37.60;;;;;;5055586;28;20440;-78
2023/06/25 04:55:11;;;;;;;11.63;9.38;;;19.90;37.10;;;;;;5061079;28;20381;-77
2023/06/25 04:57:40;;;;;;;13.73;9.93;;;19.90;36.90;;;;;;5063123;28;20393;-77
2023/06/25 05:00:06;;;;;;;15.13;10.10;;;19.90;36.80;;;;;;5045818;28;20401;-78
2023/06/25 05:02:32;;;;;;;11.60;9.93;;;19.90;37.10;;;;;;5059954;28;20412;-77
2023/06/25 05:04:57;;;;;;;14.70;10.27;;;19.90;37.20;;;;;;5056917;28;20405;-78
2023/06/25 05:07:23;;;;;;;12.45;9.73;;;19.90;37.60;;;;;;5057607;28;20378;-78
2023/06/25 05:09:48;;;;;;;16.57;9.90;;;20.00;37.00;;;;;;5058445;28;20420;-78
2023/06/25 05:12:14;;;;;;;13.57;9.88;;;20.10;36.80;;;;;;5057248;28;20385;-78
2023/06/25 05:14:39;;;;;;;14.60;9.50;;;20.10;36.50;;;;;;5037585;28;20400;-78
2023/06/25 05:17:05;;;;;;;11.03;9.00;;;20.30;36.20;;;;;;5037283;28;20803;-78
2023/06/25 05:19:31;;;;;;;13.52;9.80;;;20.40;35.90;;;;;;5054866;28;20770;-78
2023/06/25 05:21:56;;;;;;;12.70;10.07;;;20.30;36.40;;;;;;5055646;28;20389;-76
2023/06/25 05:24:22;;;;;;;15.00;9.90;;;20.30;36.40;;;;;;5056050;28;20386;-77
2023/06/25 05:26:47;;;;;;;13.15;10.35;;;20.40;35.80;;;;;;5065238;28;20460;-79
2023/06/25 05:29:13;;;;;;;14.07;9.30;;;20.50;35.80;;;;;;5052268;28;20424;-77
2023/06/25 05:31:39;;;;;;;16.70;9.98;;;20.70;35.10;;;;;;5053261;28;20385;-77
2023/06/25 05:34:04;;;;;;;13.73;10.00;;;20.70;35.10;;;;;;5055009;28;20389;-78
2023/06/25 05:36:30;;;;;;;15.60;9.80;;;20.70;35.40;;;;;;5054554;28;20381;-78
2023/06/25 05:38:55;;;;;;;11.85;10.13;;;20.80;35.00;;;;;;5037215;28;20390;-77
2023/06/25 05:41:21;;;;;;;13.40;8.60;;;20.90;34.70;;;;;;5053752;28;20417;-77
2023/06/25 05:43:46;;;;;;;13.32;9.40;;;21.10;34.20;;;;;;5053356;28;20933;-77
2023/06/25 05:46:13;;;;;;;14.60;9.53;;;21.30;33.80;;;;;;5052850;28;20720;-78
2023/06/25 05:48:40;;;;;;;15.30;9.35;;;21.40;33.60;;;;;;5054742;28;20568;-78
2023/06/25 05:51:05;;;;;;;13.68;9.70;;;21.50;32.60;;;;;;5054998;28;20468;-77
2023/06/25 05:53:41;;;;;;;11.70;9.43;;;21.60;32.00;;;;;;5056363;28;20479;-77
2023/06/25 05:56:07;;;;;;;12.77;9.25;;;21.70;30.60;;;;;;5056631;28;20397;-80
2023/06/25 05:58:34;;;;;;;16.02;9.85;;;21.80;29.70;;;;;;5057482;28;20378;-78
2023/06/25 06:01:00;;;;;;;12.77;9.70;;;21.90;30.30;;;;;;5054886;28;20381;-78
2023/06/25 06:03:25;;;;;;;15.00;9.65;;;21.90;29.70;;;;;;5054485;28;20436;-77
2023/06/25 06:05:52;;;;;;;17.87;9.90;;;22.00;29.00;;;;;;5055735;28;20455;-78
2023/06/25 06:08:17;;;;;;;13.38;9.07;;;22.00;29.10;;;;;;5054790;28;20703;-78
2023/06/25 06:10:43;;;;;;;12.43;9.47;;;22.10;28.90;;;;;;5057252;28;20451;-78
2023/06/25 06:13:09;;;;;;;15.77;9.60;;;22.20;28.80;;;;;;5057773;28;20400;-78
2023/06/25 06:15:34;;;;;;;13.00;9.17;;;22.30;28.50;;;;;;5054186;28;20377;-78
2023/06/25 06:18:00;;;;;;;12.60;9.17;;;22.40;28.10;;;;;;5037640;28;20859;-77
2023/06/25 06:20:25;;;;;;;14.93;9.30;;;22.40;28.30;;;;;;5054567;28;20389;-78
2023/06/25 06:22:51;;;;;;;13.50;9.43;;;22.50;27.80;;;;;;5055197;28;20869;-77
2023/06/25 06:25:16;;;;;;;14.73;9.17;;;22.60;27.50;;;;;;5037384;28;20412;-77
2023/06/25 06:27:42;;;;;;;13.07;9.00;;;22.60;27.60;;;;;;5035640;28;20866;-77
2023/06/25 06:30:08;;;;;;;13.70;8.85;;;22.70;27.40;;;;;;5054686;28;20843;-79
2023/06/25 06:32:33;;;;;;;16.27;8.85;;;22.90;27.50;;;;;;5053506;28;20447;-78
2023/06/25 06:34:59;;;;;;;12.63;9.20;;;22.80;27.00;;;;;;5054286;28;20397;-78
2023/06/25 06:37:24;;;;;;;10.63;8.83;;;22.90;26.80;;;;;;5055574;28;20823;-76
2023/06/25 06:39:50;;;;;;;11.03;9.20;;;23.00;26.80;;;;;;5055316;28;20822;-77
2023/06/25 06:42:15;;;;;;;11.27;8.40;;;23.10;26.10;;;;;;5054437;28;20790;-78
2023/06/25 06:44:41;;;;;;;11.23;8.18;;;23.30;25.70;;;;;;5036914;28;20699;-77
2023/06/25 06:47:07;;;;;;;14.10;8.87;;;23.30;25.70;;;;;;5058690;28;20386;-76
2023/06/25 06:49:32;;;;;;;10.82;8.00;;;23.40;26.20;;;;;;5072514;28;20381;-75
2023/06/25 06:51:58;;;;;;;10.00;8.33;;;23.40;25.60;;;;;;5071236;28;20860;-77
2023/06/25 06:54:23;;;;;;;10.83;8.10;;;23.60;24.80;;;;;;5064214;28;20400;-77
2023/06/25 06:56:49;;;;;;;9.33;7.90;;;23.70;25.00;;;;;;5064335;28;20435;-77
2023/06/25 06:59:14;;;;;;;11.73;8.38;;;23.80;24.00;;;;;;5063751;28;20456;-77
2023/06/25 07:01:40;;;;;;;11.20;8.50;;;23.90;23.90;;;;;;5063461;28;20420;-77
2023/06/25 07:04:05;;;;;;;12.88;8.52;;;23.90;23.90;;;;;;5063148;28;20454;-78
2023/06/25 07:06:31;;;;;;;12.27;8.67;;;24.00;24.10;;;;;;5056260;28;20387;-77
2023/06/25 07:08:57;;;;;;;11.15;8.95;;;24.10;23.70;;;;;;5052338;28;20862;-78
2023/06/25 07:11:23;;;;;;;11.00;8.25;;;24.20;22.90;;;;;;5034311;28;20687;-77
2023/06/25 07:13:49;;;;;;;9.63;8.60;;;24.20;23.60;;;;;;5052132;28;20447;-77
2023/06/25 07:16:15;;;;;;;12.23;8.80;;;24.30;23.40;;;;;;5034511;28;20443;-77
2023/06/25 07:18:43;;;;;;;8.60;7.65;;;24.40;23.00;;;;;;5063517;28;20481;-77
2023/06/25 07:21:09;;;;;;;11.18;8.55;;;24.60;21.90;;;;;;5061584;28;20399;-77
2023/06/25 07:23:36;;;;;;;11.80;8.70;;;24.70;22.10;;;;;;5062649;28;20843;-77
2023/06/25 07:26:01;;;;;;;10.20;8.27;;;24.90;22.20;;;;;;5057439;28;20699;-77
2023/06/25 07:28:27;;;;;;;13.07;8.30;;;24.90;21.80;;;;;;5054380;28;20393;-77
2023/06/25 07:30:52;;;;;;;9.60;7.95;;;25.00;21.60;;;;;;5055146;28;20377;-78
2023/06/25 07:33:18;;;;;;;11.27;8.00;;;25.10;21.90;;;;;;5054640;28;20447;-77
2023/06/25 07:35:43;;;;;;;9.80;8.00;;;25.20;21.20;;;;;;5055959;28;20819;-77
2023/06/25 07:38:09;;;;;;;9.53;8.50;;;25.40;21.30;;;;;;5055142;28;20393;-78
2023/06/25 07:40:34;;;;;;;12.57;8.00;;;25.50;20.20;;;;;;5058447;28;20792;-78
2023/06/25 07:43:01;;;;;;;11.10;8.30;;;25.50;19.90;;;;;;5059311;28;20424;-77
2023/06/25 07:45:26;;;;;;;9.75;7.38;;;25.50;20.00;;;;;;5060157;28;20428;-78
2023/06/25 07:47:52;;;;;;;10.23;7.80;;;25.60;20.00;;;;;;5058166;28;20447;-78
2023/06/25 07:50:17;;;;;;;9.87;7.70;;;25.60;19.70;;;;;;5058842;28;20409;-77
2023/06/25 07:52:43;;;;;;;10.00;8.40;;;25.70;19.30;;;;;;5060923;28;20406;-78
2023/06/25 07:55:09;;;;;;;12.03;7.63;;;25.70;19.00;;;;;;5066501;28;20458;-77
2023/06/25 07:57:34;;;;;;;10.60;7.70;;;25.70;20.00;;;;;;5067782;28;20428;-76
2023/06/25 08:00:00;;;;;;;11.70;7.90;;;25.80;19.40;;;;;;5072196;28;20427;-76
2023/06/25 08:02:25;;;;;;;9.87;7.70;;;25.80;18.90;;;;;;5066564;28;20409;-76
2023/06/25 08:04:53;;;;;;;8.43;7.53;;;26.00;19.00;;;;;;5073130;28;20450;-76
2023/06/25 08:07:19;;;;;;;10.05;7.40;;;26.10;18.10;;;;;;5056112;28;20420;-75
2023/06/25 08:09:45;;;;;;;11.40;7.60;;;26.20;18.20;;;;;;5074060;28;20369;-77
2023/06/25 08:12:10;;;;;;;10.02;7.70;;;26.40;17.90;;;;;;5071790;28;20440;-77
2023/06/25 08:14:36;;;;;;;10.00;7.27;;;26.40;17.40;;;;;;5071960;28;20385;-77
2023/06/25 08:17:01;;;;;;;14.55;7.90;;;26.30;17.10;;;;;;5071716;28;20386;-76
2023/06/25 08:19:27;;;;;;;10.10;7.80;;;26.50;17.30;;;;;;5068830;28;20398;-77
2023/06/25 08:21:52;;;;;;;8.50;7.50;;;26.60;17.10;;;;;;5068580;28;20385;-76
2023/06/25 08:24:18;;;;;;;8.93;7.47;;;26.80;16.30;;;;;;5067139;28;20469;-78
2023/06/25 08:26:43;;;;;;;8.80;6.90;;;26.80;16.20;;;;;;5063045;28;20385;-77
2023/06/25 08:29:09;;;;;;;9.60;7.90;;;26.90;14.50;;;;;;5038254;28;20746;-77
2023/06/25 08:31:35;;;;;;;7.90;7.10;;;27.00;15.30;;;;;;5056338;28;20392;-78
2023/06/25 08:34:00;;;;;;;8.63;6.40;;;27.10;14.50;;;;;;5057604;28;20461;-78
2023/06/25 08:36:26;;;;;;;7.70;6.57;;;27.10;15.00;;;;;;5059782;28;20404;-78
2023/06/25 08:38:51;;;;;;;9.32;6.90;;;27.20;14.70;;;;;;5058669;28;20791;-78
2023/06/25 08:41:17;;;;;;;8.38;6.60;;;27.30;13.50;;;;;;5059949;28;20444;-78
2023/06/25 08:43:42;;;;;;;9.23;6.80;;;27.40;14.00;;;;;;5059628;28;20401;-78
2023/06/25 08:46:08;;;;;;;8.55;6.85;;;27.30;12.40;;;;;;5041079;28;20390;-78
2023/06/25 08:48:38;;;;;;;8.10;6.60;;;27.40;12.80;;;;;;5058696;28;20380;-78
2023/06/25 08:51:08;;;;;;;8.57;6.93;;;27.50;12.60;;;;;;5055808;28;20824;-76
2023/06/25 08:53:35;;;;;;;9.05;7.10;;;27.50;13.30;;;;;;5057617;28;20468;-77
2023/06/25 08:56:03;;;;;;;8.82;6.75;;;27.60;13.20;;;;;;5058349;28;20678;-77
2023/06/25 08:58:29;;;;;;;8.32;7.28;;;27.60;12.50;;;;;;5059284;28;20373;-77
2023/06/25 09:00:54;;;;;;;10.68;7.40;;;27.60;12.60;;;;;;5068839;28;20480;-76
2023/06/25 09:03:20;;;;;;;7.82;6.70;;;27.80;11.60;;;;;;5073275;28;20397;-76
2023/06/25 09:05:55;;;;;;;11.73;6.43;;;27.90;11.80;;;;;;5072473;28;20381;-76
2023/06/25 09:08:26;;;;;;;8.57;7.00;;;28.00;11.70;;;;;;5069130;28;20418;-78
2023/06/25 09:10:53;;;;;;;8.70;6.60;;;28.00;11.30;;;;;;5069691;28;20381;-74
2023/06/25 09:13:23;;;;;;;10.70;6.80;;;28.00;10.90;;;;;;5070491;28;20407;-77
2023/06/25 09:15:49;;;;;;;8.07;6.68;;;28.10;10.70;;;;;;5073944;28;20929;-77
2023/06/25 09:20:48;;;;;;;9.38;6.20;;;28.40;11.10;;;;;;5031868;28;20425;-73
2023/06/25 09:23:21;;;;;;;7.15;6.45;;;28.50;10.50;;;;;;5032627;28;20905;-77
2023/06/25 09:25:48;;;;;;;7.78;6.97;;;28.50;10.20;;;;;;5032625;28;20820;-77
2023/06/25 09:28:14;;;;;;;9.97;6.80;;;28.60;9.40;;;;;;5014550;28;20479;-76
2023/06/25 09:30:40;;;;;;;10.05;6.97;;;28.60;9.90;;;;;;5033582;28;20489;-77
2023/06/25 09:33:05;;;;;;;8.47;6.70;;;28.70;9.80;;;;;;5033451;28;20470;-77
2023/06/25 09:35:32;;;;;;;10.68;7.00;;;28.70;9.30;;;;;;5000321;28;20403;-76
2023/06/25 09:37:58;;;;;;;8.67;6.43;;;28.50;9.30;;;;;;5041114;28;20417;-78
2023/06/25 09:40:23;;;;;;;7.30;6.60;;;28.50;10.00;;;;;;5043633;28;20387;-76
2023/06/25 09:42:52;;;;;;;9.43;7.82;;;28.60;8.50;;;;;;5046248;28;20410;-76
2023/06/25 09:45:20;;;;;;;7.70;6.90;;;28.60;9.10;;;;;;5047929;28;20406;-76
2023/06/25 09:47:47;;;;;;;8.02;7.22;;;28.60;9.10;;;;;;5038005;28;20421;-77
2023/06/25 09:50:27;;;;;;;8.75;6.97;;;28.80;8.80;;;;;;5032929;28;20720;-76
2023/06/25 09:52:59;;;;;;;11.60;7.05;;;28.90;9.60;;;;;;5033199;28;20474;-76
2023/06/25 09:55:26;;;;;;;12.18;6.90;;;29.00;8.00;;;;;;5034655;28;20419;-77
2023/06/25 09:57:53;;;;;;;7.38;6.47;;;28.80;8.30;;;;;;5014284;28;20457;-77
2023/06/25 10:00:21;;;;;;;8.23;6.70;;;29.00;8.40;;;;;;5032490;28;20837;-75
2023/06/25 10:02:48;;;;;;;8.23;6.45;;;29.20;7.80;;;;;;5030316;28;20403;-76
2023/06/25 10:05:13;;;;;;;9.35;6.75;;;29.30;8.30;;;;;;5031680;28;20404;-74
2023/06/25 10:07:40;;;;;;;8.47;6.80;;;29.40;7.60;;;;;;5031273;28;20845;-76
2023/06/25 10:10:06;;;;;;;10.27;6.70;;;29.30;7.90;;;;;;5031495;28;20580;-76
2023/06/25 10:12:41;;;;;;;8.40;6.70;;;29.40;7.60;;;;;;5031535;28;20910;-76
2023/06/25 10:15:06;;;;;;;7.68;6.85;;;29.40;8.10;;;;;;5031491;28;20391;-76
2023/06/25 10:17:33;;;;;;;8.35;6.55;;;29.40;8.00;;;;;;5029805;28;20949;-76
2023/06/25 10:20:01;;;;;;;8.32;7.18;;;29.40;7.80;;;;;;5034329;28;20405;-77
2023/06/25 10:22:28;;;;;;;7.95;7.10;;;29.40;7.10;;;;;;5014934;28;20493;-76
2023/06/25 10:24:55;;;;;;;8.55;6.70;;;29.40;7.70;;;;;;5034474;28;20386;-76
2023/06/25 10:27:24;;;;;;;7.00;6.30;;;29.60;6.90;;;;;;5034801;28;20386;-76
2023/06/25 10:29:50;;;;;;;7.10;6.40;;;29.70;6.60;;;;;;5037531;28;20856;-76
2023/06/25 10:32:20;;;;;;;7.40;6.60;;;29.70;7.10;;;;;;5039334;28;20422;-75
2023/06/25 10:34:55;;;;;;;9.30;6.65;;;29.80;7.40;;;;;;5040684;28;20387;-77
2023/06/25 10:37:21;;;;;;;7.40;6.40;;;29.90;7.40;;;;;;5041580;28;20390;-75
2023/06/25 10:39:47;;;;;;;8.70;6.70;;;30.00;6.70;;;;;;5037566;28;20394;-76
2023/06/25 10:42:13;;;;;;;8.50;6.80;;;29.90;5.90;;;;;;5030571;28;20375;-76
2023/06/25 10:44:40;;;;;;;11.52;6.90;;;29.80;6.00;;;;;;5031139;28;20383;-75
2023/06/25 10:47:09;;;;;;;8.73;6.80;;;29.70;5.90;;;;;;5031179;28;20433;-76
2023/06/25 10:49:36;;;;;;;6.70;6.00;;;29.70;6.50;;;;;;5031374;28;20391;-76
2023/06/25 10:52:05;;;;;;;7.18;6.47;;;29.90;5.40;;;;;;5031345;28;20390;-76
2023/06/25 10:54:32;;;;;;;7.78;6.70;;;29.90;5.40;;;;;;5014380;28;20430;-76
2023/06/25 10:57:12;;;;;;;7.32;6.32;;;30.00;5.80;;;;;;5030884;28;20449;-76
2023/06/25 10:59:38;;;;;;;9.73;5.70;;;30.00;5.20;;;;;;5031251;28;20414;-75
2023/06/25 11:02:14;;;;;;;8.38;6.13;;;30.00;6.00;;;;;;5030960;28;20863;-76
2023/06/25 11:04:49;;;;;;;8.90;6.70;;;30.00;5.80;;;;;;5013630;28;20387;-76
2023/06/25 11:07:14;;;;;;;10.15;6.18;;;30.00;6.10;;;;;;5033579;28;20868;-76
2023/06/25 11:09:40;;;;;;;8.97;7.10;;;30.10;6.80;;;;;;5040875;28;20406;-76
2023/06/25 11:12:06;;;;;;;10.48;6.60;;;30.20;6.30;;;;;;5042784;28;20403;-76
2023/06/25 11:14:33;;;;;;;7.07;6.38;;;30.30;7.10;;;;;;5021990;28;20457;-76
2023/06/25 11:16:58;;;;;;;7.93;6.45;;;30.60;6.10;;;;;;5018043;28;20474;-77
2023/06/25 11:19:25;;;;;;;7.10;6.40;;;30.60;5.00;;;;;;5036037;28;20421;-76
2023/06/25 11:21:51;;;;;;;7.22;6.40;;;30.60;5.70;;;;;;5035419;28;20387;-76
2023/06/25 11:24:17;;;;;;;7.50;6.67;;;30.60;5.10;;;;;;5037427;28;20399;-80
2023/06/25 11:26:44;;;;;;;8.73;6.95;;;30.50;5.10;;;;;;5040607;28;20858;-75
2023/06/25 11:29:11;;;;;;;9.17;6.70;;;30.60;6.00;;;;;;5037733;28;20398;-75
2023/06/25 11:31:49;;;;;;;10.45;6.40;;;30.60;5.00;;;;;;5047921;28;20375;-76
2023/06/25 11:34:27;;;;;;;7.72;5.80;;;30.70;4.90;;;;;;5035623;28;20471;-77
2023/06/25 11:36:53;;;;;;;7.10;6.40;;;30.80;5.20;;;;;;5035118;28;20417;-76
2023/06/25 11:39:19;;;;;;;7.60;6.60;;;30.70;5.50;;;;;;5033752;28;20883;-76
2023/06/25 11:41:45;;;;;;;7.73;6.90;;;30.80;6.20;;;;;;5032698;28;20391;-75
2023/06/25 11:44:21;;;;;;;8.32;6.70;;;31.10;6.00;;;;;;5035752;28;20403;-76
2023/06/25 11:46:51;;;;;;;7.43;6.73;;;31.30;5.40;;;;;;5034180;28;20387;-76
2023/06/25 11:49:18;;;;;;;7.15;6.10;;;31.50;4.60;;;;;;5017584;28;20391;-77
2023/06/25 11:51:43;;;;;;;6.72;6.00;;;31.60;3.80;;;;;;5033250;28;20409;-76
2023/06/25 11:54:09;;;;;;;7.53;6.13;;;31.50;2.70;;;;;;5033974;28;20395;-77
2023/06/25 11:56:35;;;;;;;7.68;6.60;;;31.20;3.30;;;;;;5036350;28;20383;-75
2023/06/25 11:59:00;;;;;;;7.20;6.50;;;31.10;4.40;;;;;;5022130;28;20415;-76
2023/06/25 12:01:26;;;;;;;7.57;6.20;;;31.10;4.70;;;;;;5038137;28;20494;-76
2023/06/25 12:03:51;;;;;;;9.02;6.82;;;31.00;5.40;;;;;;5037127;28;20757;-77
2023/06/25 12:06:17;;;;;;;9.05;6.10;;;31.00;4.70;;;;;;5035463;28;20383;-76
2023/06/25 12:08:42;;;;;;;7.80;5.87;;;31.40;4.30;;;;;;5033234;28;20434;-75
2023/06/25 12:11:08;;;;;;;9.40;6.70;;;31.50;4.60;;;;;;5033728;28;20387;-76
2023/06/25 12:13:34;;;;;;;9.60;6.45;;;31.60;3.70;;;;;;5034954;28;20389;-77
2023/06/25 12:15:59;;;;;;;6.73;5.70;;;31.70;3.90;;;;;;5034537;28;20390;-77
2023/06/25 12:18:25;;;;;;;6.90;6.20;;;31.60;3.90;;;;;;5035441;28;20387;-76
2023/06/25 12:20:51;;;;;;;10.25;6.50;;;31.70;3.40;;;;;;5034262;28;20411;-75
2023/06/25 12:23:16;;;;;;;6.28;5.68;;;31.90;2.70;;;;;;5035020;28;20403;-77
2023/06/25 12:25:42;;;;;;;7.67;6.70;;;32.20;2.70;;;;;;5015793;28;20402;-76
2023/06/25 12:28:07;;;;;;;6.20;5.60;;;32.10;2.70;;;;;;5033586;28;20434;-76
2023/06/25 12:30:35;;;;;;;5.90;5.40;;;32.40;2.60;;;;;;5033441;28;20383;-75
2023/06/25 12:33:01;;;;;;;5.78;5.28;;;32.40;2.00;;;;;;5034851;28;20398;-76
2023/06/25 12:35:27;;;;;;;5.80;5.30;;;32.50;2.40;;;;;;5033918;28;20391;-76
2023/06/25 12:37:53;;;;;;;6.00;5.50;;;32.60;1.30;;;;;;5034889;28;20379;-75
2023/06/25 12:40:18;;;;;;;6.63;6.03;;;32.40;1.60;;;;;;5036652;28;20476;-77